Galena, Nevada Weather observations

Data are for 60 minute period ending nearest time listed.
 Day   Time    Ave.   Ave.  Ave.  Vector   Max.   Total    Solar   
  of    of     Air    Rel.  Wind   Wind    Wind  Precip.   Rad.    
Year   Day     Temp.  Hum.  Speed  Dir.    Gust                    
2026   (PST)    F      %     mph   deg.    mph     in.     W/m2    
------------------------------------------------------------------- 
 126   17:00   73.0    19    6.0    55     14.0    1.16     464  
 126   18:00   71.0    22    5.0     6     12.0    1.16      66  
 126   19:00   64.0    29    4.0   304      7.0    1.16      21  
 126   20:00   61.0    31    5.0   297     10.0    1.16       2  
 126   21:00   61.0    44    7.0   293     14.0    1.16       0  
 126   22:00   61.0    39    7.0   305     15.0    1.16       0  
 126   23:00   59.0    42    2.0   272     12.0    1.16       0  
 127    0:00   56.0    49    4.0   301      7.0    1.16       0  
 127    1:00   54.0    52    5.0   241      6.0    1.16       0  
 127    2:00   53.0    59    3.0   294      6.0    1.16       0  
 127    3:00   55.0    57    4.0   267      7.0    1.16       0  
 127    4:00   49.0    69    2.0   285      6.0    1.16       0  
 127    5:00   50.0    67    2.0   266      6.0    1.16       0  
 127    6:00   54.0    60    2.0   248      5.0    1.16      49  
 127    7:00   62.0    52    2.0   191      7.0    1.16     228  
 127    8:00   65.0    43    2.0    96      6.0    1.16     429  
 127    9:00   67.0    40    3.0    98      8.0    1.16     617  
 127   10:00   69.0    35    4.0    32     11.0    1.16     773  
 127   11:00   72.0    28    3.0   140     11.0    1.16     884  
 127   12:00   75.0    18    9.0   219     16.0    1.16     950  
 127   13:00   76.0    15    7.0   245     20.0    1.16     966  
 127   14:00   76.0    15    3.0   107     20.0    1.16     914  
 127   15:00   76.0    18    5.0   289     15.0    1.16     803  
 127   16:00   75.0    18    5.0   219     16.0    1.16     655  

Return to Galena, Nevada graphs page.


Western Regional Climate Center,wrcc@dri.edu